sensor_id;sensor_type;location;lat;lon;timestamp;pressure;altitude;pressure_sealevel;temperature;humidity
3132;BME280;62090;52.330;9.104;2024-02-26T00:00:55;99681.78;;;4.14;99.13
3132;BME280;62090;52.330;9.104;2024-02-26T00:03:25;99673.84;;;4.29;99.41
3132;BME280;62090;52.330;9.104;2024-02-26T00:05:58;99692.28;;;4.53;99.07
3132;BME280;62090;52.330;9.104;2024-02-26T00:08:28;99695.09;;;4.62;98.55
3132;BME280;62090;52.330;9.104;2024-02-26T00:10:59;99682.38;;;4.59;98.61
3132;BME280;62090;52.330;9.104;2024-02-26T00:13:29;99582.53;;;4.10;98.10
3132;BME280;62090;52.330;9.104;2024-02-26T00:15:59;99637.19;;;4.38;97.66
3132;BME280;62090;52.330;9.104;2024-02-26T00:18:29;99697.81;;;4.68;97.92
3132;BME280;62090;52.330;9.104;2024-02-26T00:21:02;99701.78;;;4.61;97.63
3132;BME280;62090;52.330;9.104;2024-02-26T00:23:32;99700.94;;;4.61;98.31
3132;BME280;62090;52.330;9.104;2024-02-26T00:26:02;99703.75;;;4.70;98.66
3132;BME280;62090;52.330;9.104;2024-02-26T00:28:33;99701.38;;;4.75;98.09
3132;BME280;62090;52.330;9.104;2024-02-26T00:31:03;99699.47;;;4.67;97.40
3132;BME280;62090;52.330;9.104;2024-02-26T00:33:31;99690.81;;;4.59;97.03
3132;BME280;62090;52.330;9.104;2024-02-26T00:36:05;99695.53;;;4.49;98.05
3132;BME280;62090;52.330;9.104;2024-02-26T00:38:35;99699.59;;;4.45;98.43
3132;BME280;62090;52.330;9.104;2024-02-26T00:41:06;99691.94;;;4.42;97.94
3132;BME280;62090;52.330;9.104;2024-02-26T00:43:36;99698.38;;;4.33;97.30
3132;BME280;62090;52.330;9.104;2024-02-26T00:46:09;99673.84;;;4.03;97.71
3132;BME280;62090;52.330;9.104;2024-02-26T00:48:39;99698.63;;;4.15;98.19
3132;BME280;62090;52.330;9.104;2024-02-26T00:51:13;99689.19;;;4.09;98.35
3132;BME280;62090;52.330;9.104;2024-02-26T00:53:44;99663.97;;;3.84;98.82
3132;BME280;62090;52.330;9.104;2024-02-26T00:56:14;99691.91;;;3.90;99.14
3132;BME280;62090;52.330;9.104;2024-02-26T00:58:44;99696.25;;;3.94;99.99
3132;BME280;62090;52.330;9.104;2024-02-26T01:01:14;99649.44;;;3.77;100.00
3132;BME280;62090;52.330;9.104;2024-02-26T01:03:44;99701.50;;;4.00;100.00
3132;BME280;62090;52.330;9.104;2024-02-26T01:06:17;99698.75;;;3.94;100.00
3132;BME280;62090;52.330;9.104;2024-02-26T01:08:49;99703.09;;;3.98;100.00
3132;BME280;62090;52.330;9.104;2024-02-26T01:11:20;99683.72;;;3.97;100.00
3132;BME280;62090;52.330;9.104;2024-02-26T01:13:50;99701.69;;;4.32;100.00
3132;BME280;62090;52.330;9.104;2024-02-26T01:16:24;99704.22;;;4.32;100.00
3132;BME280;62090;52.330;9.104;2024-02-26T01:18:56;99702.09;;;4.18;100.00
3132;BME280;62090;52.330;9.104;2024-02-26T01:21:30;99692.91;;;4.20;100.00
3132;BME280;62090;52.330;9.104;2024-02-26T01:24:00;99671.53;;;4.09;100.00
3132;BME280;62090;52.330;9.104;2024-02-26T01:26:30;99678.38;;;4.13;100.00
3132;BME280;62090;52.330;9.104;2024-02-26T01:29:00;99697.44;;;4.31;100.00
3132;BME280;62090;52.330;9.104;2024-02-26T01:31:30;99685.91;;;4.37;100.00
3132;BME280;62090;52.330;9.104;2024-02-26T01:34:00;99680.72;;;4.33;100.00
3132;BME280;62090;52.330;9.104;2024-02-26T01:36:34;99690.28;;;4.43;100.00
3132;BME280;62090;52.330;9.104;2024-02-26T01:39:04;99695.31;;;4.43;100.00
3132;BME280;62090;52.330;9.104;2024-02-26T01:41:34;99687.75;;;4.43;100.00
3132;BME280;62090;52.330;9.104;2024-02-26T01:44:04;99691.00;;;4.39;100.00
3132;BME280;62090;52.330;9.104;2024-02-26T01:46:35;99692.69;;;4.40;100.00
3132;BME280;62090;52.330;9.104;2024-02-26T01:49:06;99665.13;;;4.19;100.00
3132;BME280;62090;52.330;9.104;2024-02-26T01:51:39;99649.84;;;4.14;100.00
3132;BME280;62090;52.330;9.104;2024-02-26T01:54:11;99680.75;;;4.34;100.00
3132;BME280;62090;52.330;9.104;2024-02-26T01:56:41;99650.13;;;4.22;100.00
3132;BME280;62090;52.330;9.104;2024-02-26T01:59:12;99623.59;;;4.08;100.00
3132;BME280;62090;52.330;9.104;2024-02-26T02:01:44;99681.28;;;4.51;100.00
3132;BME280;62090;52.330;9.104;2024-02-26T02:04:17;99693.03;;;4.50;100.00
3132;BME280;62090;52.330;9.104;2024-02-26T02:06:50;99697.38;;;4.54;100.00
3132;BME280;62090;52.330;9.104;2024-02-26T02:09:22;99666.66;;;4.41;100.00
3132;BME280;62090;52.330;9.104;2024-02-26T02:11:52;99688.91;;;4.52;100.00
3132;BME280;62090;52.330;9.104;2024-02-26T02:14:26;99660.56;;;4.34;100.00
3132;BME280;62090;52.330;9.104;2024-02-26T02:16:56;99675.50;;;4.53;100.00
3132;BME280;62090;52.330;9.104;2024-02-26T02:19:26;99672.66;;;4.44;100.00
3132;BME280;62090;52.330;9.104;2024-02-26T02:21:59;99682.25;;;4.54;100.00
3132;BME280;62090;52.330;9.104;2024-02-26T02:24:29;99684.94;;;4.60;100.00
3132;BME280;62090;52.330;9.104;2024-02-26T02:26:59;99685.78;;;4.61;100.00
3132;BME280;62090;52.330;9.104;2024-02-26T02:29:30;99684.19;;;4.63;100.00
3132;BME280;62090;52.330;9.104;2024-02-26T02:32:01;99684.25;;;4.64;100.00
3132;BME280;62090;52.330;9.104;2024-02-26T02:34:32;99668.72;;;4.52;100.00
3132;BME280;62090;52.330;9.104;2024-02-26T02:37:06;99688.44;;;4.64;100.00
3132;BME280;62090;52.330;9.104;2024-02-26T02:39:36;99683.19;;;4.58;100.00
3132;BME280;62090;52.330;9.104;2024-02-26T02:42:06;99650.47;;;4.34;100.00
3132;BME280;62090;52.330;9.104;2024-02-26T02:44:36;99643.59;;;4.29;100.00
3132;BME280;62090;52.330;9.104;2024-02-26T02:47:06;99688.75;;;4.48;100.00
3132;BME280;62090;52.330;9.104;2024-02-26T02:49:36;99684.84;;;4.57;100.00
3132;BME280;62090;52.330;9.104;2024-02-26T02:52:09;99649.47;;;4.29;100.00
3132;BME280;62090;52.330;9.104;2024-02-26T02:54:39;99677.88;;;4.49;100.00
3132;BME280;62090;52.330;9.104;2024-02-26T02:57:09;99686.25;;;4.48;100.00
3132;BME280;62090;52.330;9.104;2024-02-26T02:59:40;99694.66;;;4.48;100.00
3132;BME280;62090;52.330;9.104;2024-02-26T03:02:10;99632.81;;;4.07;100.00
3132;BME280;62090;52.330;9.104;2024-02-26T03:04:40;99606.13;;;3.87;100.00
3132;BME280;62090;52.330;9.104;2024-02-26T03:07:13;99675.56;;;4.30;100.00
3132;BME280;62090;52.330;9.104;2024-02-26T03:09:43;99698.06;;;4.49;100.00
3132;BME280;62090;52.330;9.104;2024-02-26T03:12:13;99710.94;;;4.58;100.00
3132;BME280;62090;52.330;9.104;2024-02-26T03:14:43;99717.66;;;4.57;100.00
3132;BME280;62090;52.330;9.104;2024-02-26T03:17:14;99716.03;;;4.59;100.00
3132;BME280;62090;52.330;9.104;2024-02-26T03:19:44;99703.75;;;4.43;100.00
3132;BME280;62090;52.330;9.104;2024-02-26T03:22:23;99721.88;;;4.58;100.00
3132;BME280;62090;52.330;9.104;2024-02-26T03:24:53;99718.50;;;4.58;100.00
3132;BME280;62090;52.330;9.104;2024-02-26T03:27:23;99712.34;;;4.50;100.00
3132;BME280;62090;52.330;9.104;2024-02-26T03:29:53;99726.78;;;4.54;100.00
3132;BME280;62090;52.330;9.104;2024-02-26T03:32:23;99647.75;;;4.01;100.00
3132;BME280;62090;52.330;9.104;2024-02-26T03:34:54;99624.56;;;3.86;100.00
3132;BME280;62090;52.330;9.104;2024-02-26T03:37:26;99701.84;;;4.36;100.00
3132;BME280;62090;52.330;9.104;2024-02-26T03:39:57;99722.94;;;4.40;100.00
3132;BME280;62090;52.330;9.104;2024-02-26T03:42:28;99664.41;;;3.96;100.00
3132;BME280;62090;52.330;9.104;2024-02-26T03:44:58;99728.00;;;4.40;100.00
3132;BME280;62090;52.330;9.104;2024-02-26T03:47:28;99725.53;;;4.41;100.00
3132;BME280;62090;52.330;9.104;2024-02-26T03:49:59;99713.53;;;4.34;100.00
3132;BME280;62090;52.330;9.104;2024-02-26T03:52:33;99726.34;;;4.40;100.00
3132;BME280;62090;52.330;9.104;2024-02-26T03:55:04;99702.72;;;4.11;100.00
3132;BME280;62090;52.330;9.104;2024-02-26T03:57:35;99736.19;;;4.33;100.00
3132;BME280;62090;52.330;9.104;2024-02-26T04:00:06;99737.06;;;4.33;100.00
3132;BME280;62090;52.330;9.104;2024-02-26T04:02:38;99698.69;;;4.16;100.00
3132;BME280;62090;52.330;9.104;2024-02-26T04:05:09;99714.94;;;4.26;100.00
3132;BME280;62090;52.330;9.104;2024-02-26T04:07:42;99725.78;;;4.23;100.00
3132;BME280;62090;52.330;9.104;2024-02-26T04:10:13;99742.91;;;4.34;100.00
3132;BME280;62090;52.330;9.104;2024-02-26T04:12:43;99747.97;;;4.34;100.00
3132;BME280;62090;52.330;9.104;2024-02-26T04:15:13;99740.25;;;4.29;100.00
3132;BME280;62090;52.330;9.104;2024-02-26T04:17:44;99741.22;;;4.33;100.00
3132;BME280;62090;52.330;9.104;2024-02-26T04:20:15;99739.44;;;4.30;100.00
3132;BME280;62090;52.330;9.104;2024-02-26T04:22:48;99736.63;;;4.21;100.00
3132;BME280;62090;52.330;9.104;2024-02-26T04:25:18;99723.47;;;4.04;100.00
3132;BME280;62090;52.330;9.104;2024-02-26T04:27:48;99743.19;;;4.16;100.00
3132;BME280;62090;52.330;9.104;2024-02-26T04:30:18;99682.50;;;3.86;100.00
3132;BME280;62090;52.330;9.104;2024-02-26T04:32:48;99743.06;;;4.13;100.00
3132;BME280;62090;52.330;9.104;2024-02-26T04:35:19;99728.78;;;4.12;100.00
3132;BME280;62090;52.330;9.104;2024-02-26T04:37:51;99746.81;;;4.24;100.00
3132;BME280;62090;52.330;9.104;2024-02-26T04:40:21;99744.13;;;4.19;100.00
3132;BME280;62090;52.330;9.104;2024-02-26T04:42:51;99753.50;;;4.23;100.00
3132;BME280;62090;52.330;9.104;2024-02-26T04:45:22;99758.53;;;4.22;100.00
3132;BME280;62090;52.330;9.104;2024-02-26T04:47:52;99689.06;;;3.81;100.00
3132;BME280;62090;52.330;9.104;2024-02-26T04:50:22;99718.34;;;4.01;100.00
3132;BME280;62090;52.330;9.104;2024-02-26T04:52:55;99768.03;;;4.31;100.00
3132;BME280;62090;52.330;9.104;2024-02-26T04:55:25;99732.91;;;4.10;100.00
3132;BME280;62090;52.330;9.104;2024-02-26T04:57:55;99772.34;;;4.33;100.00
3132;BME280;62090;52.330;9.104;2024-02-26T05:00:25;99773.38;;;4.40;100.00
3132;BME280;62090;52.330;9.104;2024-02-26T05:02:55;99775.75;;;4.35;100.00
3132;BME280;62090;52.330;9.104;2024-02-26T05:05:26;99762.06;;;4.27;100.00
3132;BME280;62090;52.330;9.104;2024-02-26T05:07:58;99720.88;;;4.03;100.00
3132;BME280;62090;52.330;9.104;2024-02-26T05:10:30;99771.16;;;4.23;100.00
3132;BME280;62090;52.330;9.104;2024-02-26T05:13:00;99779.56;;;4.22;100.00
3132;BME280;62090;52.330;9.104;2024-02-26T05:15:30;99776.75;;;4.15;100.00
3132;BME280;62090;52.330;9.104;2024-02-26T05:18:00;99726.09;;;3.83;100.00
3132;BME280;62090;52.330;9.104;2024-02-26T05:20:30;99782.00;;;4.21;100.00
3132;BME280;62090;52.330;9.104;2024-02-26T05:23:05;99766.88;;;4.21;100.00
3132;BME280;62090;52.330;9.104;2024-02-26T05:25:35;99721.13;;;3.85;100.00
3132;BME280;62090;52.330;9.104;2024-02-26T05:28:05;99770.66;;;4.08;100.00
3132;BME280;62090;52.330;9.104;2024-02-26T05:30:36;99773.97;;;4.07;100.00
3132;BME280;62090;52.330;9.104;2024-02-26T05:33:07;99742.03;;;3.82;100.00
3132;BME280;62090;52.330;9.104;2024-02-26T05:35:41;99751.69;;;3.94;100.00
3132;BME280;62090;52.330;9.104;2024-02-26T05:38:14;99781.94;;;4.19;100.00
3132;BME280;62090;52.330;9.104;2024-02-26T05:40:44;99769.75;;;4.06;100.00
3132;BME280;62090;52.330;9.104;2024-02-26T05:43:15;99786.84;;;4.15;100.00
3132;BME280;62090;52.330;9.104;2024-02-26T05:45:45;99785.97;;;4.14;100.00
3132;BME280;62090;52.330;9.104;2024-02-26T05:48:15;99785.13;;;4.14;100.00
3132;BME280;62090;52.330;9.104;2024-02-26T05:50:46;99749.16;;;3.94;100.00
3132;BME280;62090;52.330;9.104;2024-02-26T05:53:19;99743.16;;;3.91;100.00
3132;BME280;62090;52.330;9.104;2024-02-26T05:55:49;99765.94;;;3.94;100.00
3132;BME280;62090;52.330;9.104;2024-02-26T05:58:19;99786.19;;;3.97;100.00
3132;BME280;62090;52.330;9.104;2024-02-26T06:00:49;99775.94;;;3.92;100.00
3132;BME280;62090;52.330;9.104;2024-02-26T06:03:20;99801.59;;;4.04;100.00
3132;BME280;62090;52.330;9.104;2024-02-26T06:05:50;99720.91;;;3.55;100.00
3132;BME280;62090;52.330;9.104;2024-02-26T06:08:23;99805.78;;;4.04;100.00
3132;BME280;62090;52.330;9.104;2024-02-26T06:10:53;99806.63;;;4.04;100.00
3132;BME280;62090;52.330;9.104;2024-02-26T06:13:23;99810.97;;;4.08;100.00
3132;BME280;62090;52.330;9.104;2024-02-26T06:15:54;99798.06;;;3.99;100.00
3132;BME280;62090;52.330;9.104;2024-02-26T06:18:24;99800.00;;;4.06;100.00
3132;BME280;62090;52.330;9.104;2024-02-26T06:20:54;99819.69;;;4.16;100.00
3132;BME280;62090;52.330;9.104;2024-02-26T06:23:27;99822.34;;;4.21;100.00
3132;BME280;62090;52.330;9.104;2024-02-26T06:25:57;99831.56;;;4.20;100.00
3132;BME280;62090;52.330;9.104;2024-02-26T06:28:27;99835.97;;;4.26;100.00
3132;BME280;62090;52.330;9.104;2024-02-26T06:30:59;99818.69;;;4.13;100.00
3132;BME280;62090;52.330;9.104;2024-02-26T06:33:29;99806.72;;;4.07;100.00
3132;BME280;62090;52.330;9.104;2024-02-26T06:36:00;99846.91;;;4.27;100.00
3132;BME280;62090;52.330;9.104;2024-02-26T06:38:33;99838.75;;;4.34;100.00
3132;BME280;62090;52.330;9.104;2024-02-26T06:41:03;99846.91;;;4.27;100.00
3132;BME280;62090;52.330;9.104;2024-02-26T06:43:33;99848.38;;;4.20;100.00
3132;BME280;62090;52.330;9.104;2024-02-26T06:46:03;99839.88;;;4.18;100.00
3132;BME280;62090;52.330;9.104;2024-02-26T06:48:33;99866.16;;;4.24;100.00
3132;BME280;62090;52.330;9.104;2024-02-26T06:51:04;99862.47;;;4.15;100.00
3132;BME280;62090;52.330;9.104;2024-02-26T06:53:37;99851.53;;;4.14;100.00
3132;BME280;62090;52.330;9.104;2024-02-26T06:56:07;99839.63;;;4.10;100.00
3132;BME280;62090;52.330;9.104;2024-02-26T06:58:37;99886.19;;;4.44;100.00
3132;BME280;62090;52.330;9.104;2024-02-26T07:01:07;99864.81;;;4.34;100.00
3132;BME280;62090;52.330;9.104;2024-02-26T07:03:40;99848.84;;;4.34;100.00
3132;BME280;62090;52.330;9.104;2024-02-26T07:06:10;99882.19;;;4.50;100.00
3132;BME280;62090;52.330;9.104;2024-02-26T07:08:43;99855.50;;;4.32;100.00
3132;BME280;62090;52.330;9.104;2024-02-26T07:11:14;99816.63;;;4.01;100.00
3132;BME280;62090;52.330;9.104;2024-02-26T07:13:46;99834.75;;;4.15;100.00
3132;BME280;62090;52.330;9.104;2024-02-26T07:16:16;99863.31;;;4.39;100.00
3132;BME280;62090;52.330;9.104;2024-02-26T07:18:46;99887.31;;;4.52;100.00
3132;BME280;62090;52.330;9.104;2024-02-26T07:21:17;99887.38;;;4.53;100.00
3132;BME280;62090;52.330;9.104;2024-02-26T07:23:50;99888.09;;;4.49;100.00
3132;BME280;62090;52.330;9.104;2024-02-26T07:26:20;99853.88;;;4.34;100.00
3132;BME280;62090;52.330;9.104;2024-02-26T07:28:52;99860.97;;;4.44;100.00
3132;BME280;62090;52.330;9.104;2024-02-26T07:31:22;99888.75;;;4.69;100.00
3132;BME280;62090;52.330;9.104;2024-02-26T07:33:52;99893.00;;;4.70;100.00
3132;BME280;62090;52.330;9.104;2024-02-26T07:36:23;99890.47;;;4.70;100.00
3132;BME280;62090;52.330;9.104;2024-02-26T07:38:56;99886.09;;;4.64;100.00
3132;BME280;62090;52.330;9.104;2024-02-26T07:41:26;99856.94;;;4.49;100.00
3132;BME280;62090;52.330;9.104;2024-02-26T07:43:56;99890.47;;;4.70;100.00
3132;BME280;62090;52.330;9.104;2024-02-26T07:46:27;99876.28;;;4.74;100.00
3132;BME280;62090;52.330;9.104;2024-02-26T07:48:57;99865.91;;;4.64;100.00
3132;BME280;62090;52.330;9.104;2024-02-26T07:51:27;99896.13;;;4.88;100.00
3132;BME280;62090;52.330;9.104;2024-02-26T07:54:00;99889.75;;;4.99;100.00
3132;BME280;62090;52.330;9.104;2024-02-26T07:56:30;99880.19;;;4.89;100.00
3132;BME280;62090;52.330;9.104;2024-02-26T07:59:00;99893.09;;;4.98;100.00
3132;BME280;62090;52.330;9.104;2024-02-26T08:01:30;99879.47;;;4.93;100.00
3132;BME280;62090;52.330;9.104;2024-02-26T08:04:01;99885.31;;;4.92;100.00
3132;BME280;62090;52.330;9.104;2024-02-26T08:06:32;99897.13;;;4.93;100.00
3132;BME280;62090;52.330;9.104;2024-02-26T08:09:07;99898.94;;;4.97;100.00
3132;BME280;62090;52.330;9.104;2024-02-26T08:11:38;99888.34;;;4.82;100.00
3132;BME280;62090;52.330;9.104;2024-02-26T08:14:08;99819.72;;;4.42;100.00
3132;BME280;62090;52.330;9.104;2024-02-26T08:16:38;99911.47;;;4.94;100.00
3132;BME280;62090;52.330;9.104;2024-02-26T08:19:08;99911.47;;;4.94;100.00
3132;BME280;62090;52.330;9.104;2024-02-26T08:21:41;99872.59;;;4.64;100.00
3132;BME280;62090;52.330;9.104;2024-02-26T08:24:14;99820.44;;;4.39;100.00
3132;BME280;62090;52.330;9.104;2024-02-26T08:26:44;99891.78;;;4.84;100.00
3132;BME280;62090;52.330;9.104;2024-02-26T08:29:14;99915.50;;;4.89;100.00
3132;BME280;62090;52.330;9.104;2024-02-26T08:31:44;99897.44;;;4.77;100.00
3132;BME280;62090;52.330;9.104;2024-02-26T08:34:15;99901.94;;;4.86;100.00
3132;BME280;62090;52.330;9.104;2024-02-26T08:36:45;99917.47;;;4.98;100.00
3132;BME280;62090;52.330;9.104;2024-02-26T08:39:18;99921.88;;;5.03;100.00
3132;BME280;62090;52.330;9.104;2024-02-26T08:41:49;99909.16;;;5.00;100.00
3132;BME280;62090;52.330;9.104;2024-02-26T08:44:19;99917.75;;;5.05;100.00
3132;BME280;62090;52.330;9.104;2024-02-26T08:46:49;99902.31;;;4.96;100.00
3132;BME280;62090;52.330;9.104;2024-02-26T08:49:19;99875.72;;;4.82;100.00
3132;BME280;62090;52.330;9.104;2024-02-26T08:51:51;99923.81;;;5.10;100.00
3132;BME280;62090;52.330;9.104;2024-02-26T08:54:23;99917.22;;;5.16;100.00
3132;BME280;62090;52.330;9.104;2024-02-26T08:56:54;99926.47;;;5.15;100.00
3132;BME280;62090;52.330;9.104;2024-02-26T08:59:24;99926.47;;;5.15;100.00
3132;BME280;62090;52.330;9.104;2024-02-26T09:01:54;99926.53;;;5.17;100.00
3132;BME280;62090;52.330;9.104;2024-02-26T09:04:24;99907.44;;;4.99;100.00
3132;BME280;62090;52.330;9.104;2024-02-26T09:06:54;99932.38;;;5.16;100.00
3132;BME280;62090;52.330;9.104;2024-02-26T09:09:27;99930.25;;;5.02;100.00
3132;BME280;62090;52.330;9.104;2024-02-26T09:11:57;99902.25;;;4.95;100.00
3132;BME280;62090;52.330;9.104;2024-02-26T09:14:28;99930.66;;;5.15;100.00
3132;BME280;62090;52.330;9.104;2024-02-26T09:16:58;99953.84;;;5.28;100.00
3132;BME280;62090;52.330;9.104;2024-02-26T09:19:28;99940.31;;;5.26;100.00
3132;BME280;62090;52.330;9.104;2024-02-26T09:21:58;99936.00;;;5.24;100.00
3132;BME280;62090;52.330;9.104;2024-02-26T09:24:31;99937.78;;;5.26;100.00
3132;BME280;62090;52.330;9.104;2024-02-26T09:27:01;99964.66;;;5.49;100.00
3132;BME280;62090;52.330;9.104;2024-02-26T09:29:31;99969.22;;;5.61;100.00
3132;BME280;62090;52.330;9.104;2024-02-26T09:32:02;99922.25;;;5.41;100.00
3132;BME280;62090;52.330;9.104;2024-02-26T09:34:32;99968.94;;;5.79;99.40
3132;BME280;62090;52.330;9.104;2024-02-26T09:37:02;99950.84;;;5.67;99.08
3132;BME280;62090;52.330;9.104;2024-02-26T09:39:49;99954.50;;;5.75;99.71
3132;BME280;62090;52.330;9.104;2024-02-26T09:42:19;99956.38;;;5.82;99.93
3132;BME280;62090;52.330;9.104;2024-02-26T09:44:51;99982.25;;;6.00;99.54
3132;BME280;62090;52.330;9.104;2024-02-26T09:47:23;99902.50;;;5.56;99.32
3132;BME280;62090;52.330;9.104;2024-02-26T09:49:56;99975.06;;;6.12;98.55
3132;BME280;62090;52.330;9.104;2024-02-26T09:52:27;99978.16;;;6.04;96.36
3132;BME280;62090;52.330;9.104;2024-02-26T09:55:01;99992.97;;;6.20;97.72
3132;BME280;62090;52.330;9.104;2024-02-26T09:57:31;99996.50;;;6.25;97.67
3132;BME280;62090;52.330;9.104;2024-02-26T10:00:03;99995.06;;;6.33;96.90
3132;BME280;62090;52.330;9.104;2024-02-26T10:02:35;99988.34;;;6.33;96.69
3132;BME280;62090;52.330;9.104;2024-02-26T10:05:07;99998.97;;;6.52;96.94
3132;BME280;62090;52.330;9.104;2024-02-26T10:07:40;100000.94;;;6.62;96.67
3132;BME280;62090;52.330;9.104;2024-02-26T10:10:14;99997.00;;;6.71;95.59
3132;BME280;62090;52.330;9.104;2024-02-26T10:12:45;100003.75;;;6.72;94.70
3132;BME280;62090;52.330;9.104;2024-02-26T10:15:15;100001.22;;;6.72;93.96
3132;BME280;62090;52.330;9.104;2024-02-26T10:17:45;99999.19;;;6.59;93.14
3132;BME280;62090;52.330;9.104;2024-02-26T10:20:17;99979.44;;;6.48;93.20
3132;BME280;62090;52.330;9.104;2024-02-26T10:22:49;99993.31;;;6.60;92.61
3132;BME280;62090;52.330;9.104;2024-02-26T10:25:22;100005.53;;;6.75;91.92
3132;BME280;62090;52.330;9.104;2024-02-26T10:27:52;100008.25;;;6.83;92.37
3132;BME280;62090;52.330;9.104;2024-02-26T10:30:23;99982.66;;;6.72;93.56
3132;BME280;62090;52.330;9.104;2024-02-26T10:32:55;99974.28;;;6.74;93.26
3132;BME280;62090;52.330;9.104;2024-02-26T10:35:25;99954.56;;;6.63;92.68
3132;BME280;62090;52.330;9.104;2024-02-26T10:37:56;99973.38;;;6.72;92.42
3132;BME280;62090;52.330;9.104;2024-02-26T10:40:28;100014.69;;;7.01;91.92
3132;BME280;62090;52.330;9.104;2024-02-26T10:42:59;99998.41;;;6.92;91.33
3132;BME280;62090;52.330;9.104;2024-02-26T10:45:29;99949.59;;;6.66;91.07
3132;BME280;62090;52.330;9.104;2024-02-26T10:48:04;99988.34;;;6.95;91.75
3132;BME280;62090;52.330;9.104;2024-02-26T10:50:34;100003.00;;;7.06;91.44
3132;BME280;62090;52.330;9.104;2024-02-26T10:53:11;100013.31;;;7.12;91.42
3132;BME280;62090;52.330;9.104;2024-02-26T10:55:49;100019.31;;;7.16;91.30
3132;BME280;62090;52.330;9.104;2024-02-26T10:58:22;100013.72;;;7.28;92.24
3132;BME280;62090;52.330;9.104;2024-02-26T11:00:52;100023.75;;;7.25;90.63
3132;BME280;62090;52.330;9.104;2024-02-26T11:03:24;100019.47;;;7.22;89.09
3132;BME280;62090;52.330;9.104;2024-02-26T11:05:55;100004.22;;;7.19;89.80
3132;BME280;62090;52.330;9.104;2024-02-26T11:08:28;99981.97;;;7.09;88.90
3132;BME280;62090;52.330;9.104;2024-02-26T11:11:02;99897.16;;;6.62;89.85
3132;BME280;62090;52.330;9.104;2024-02-26T11:13:33;100004.53;;;7.33;89.24
3132;BME280;62090;52.330;9.104;2024-02-26T11:16:06;99989.50;;;7.40;88.04
3132;BME280;62090;52.330;9.104;2024-02-26T11:18:37;100023.00;;;7.61;87.23
3132;BME280;62090;52.330;9.104;2024-02-26T11:21:10;99993.13;;;7.48;87.91
3132;BME280;62090;52.330;9.104;2024-02-26T11:23:41;100016.50;;;7.73;86.62
3132;BME280;62090;52.330;9.104;2024-02-26T11:26:15;100029.53;;;7.86;86.74
3132;BME280;62090;52.330;9.104;2024-02-26T11:28:47;100019.31;;;7.83;86.38
3132;BME280;62090;52.330;9.104;2024-02-26T11:31:18;100021.22;;;7.92;85.81
3132;BME280;62090;52.330;9.104;2024-02-26T11:33:54;100018.59;;;7.89;85.88
3132;BME280;62090;52.330;9.104;2024-02-26T11:36:26;100016.00;;;7.86;85.79
3132;BME280;62090;52.330;9.104;2024-02-26T11:38:56;100042.72;;;8.09;84.98
3132;BME280;62090;52.330;9.104;2024-02-26T11:41:30;100027.50;;;8.07;85.99
3132;BME280;62090;52.330;9.104;2024-02-26T11:44:01;99995.56;;;7.80;83.35
3132;BME280;62090;52.330;9.104;2024-02-26T11:46:40;100034.97;;;8.01;84.89
3132;BME280;62090;52.330;9.104;2024-02-26T11:49:29;100019.69;;;8.00;84.60
3132;BME280;62090;52.330;9.104;2024-02-26T11:52:00;100027.44;;;8.06;84.57
3132;BME280;62090;52.330;9.104;2024-02-26T11:54:39;100018.13;;;8.05;85.51
3132;BME280;62090;52.330;9.104;2024-02-26T11:57:25;100022.63;;;8.17;83.93
3132;BME280;62090;52.330;9.104;2024-02-26T12:00:10;100044.78;;;8.25;84.22
3132;BME280;62090;52.330;9.104;2024-02-26T12:02:43;100039.97;;;8.34;84.20
3132;BME280;62090;52.330;9.104;2024-02-26T12:05:15;99990.44;;;8.16;82.62
3132;BME280;62090;52.330;9.104;2024-02-26T12:07:49;100056.22;;;8.42;82.75
3132;BME280;62090;52.330;9.104;2024-02-26T12:10:26;100010.06;;;8.23;83.48
3132;BME280;62090;52.330;9.104;2024-02-26T12:13:06;100036.22;;;8.58;83.65
3132;BME280;62090;52.330;9.104;2024-02-26T12:15:42;100055.16;;;8.72;82.06
3132;BME280;62090;52.330;9.104;2024-02-26T12:18:17;100046.69;;;8.71;81.66
3132;BME280;62090;52.330;9.104;2024-02-26T12:20:58;100041.44;;;8.64;82.10
3132;BME280;62090;52.330;9.104;2024-02-26T12:23:28;100020.97;;;8.56;81.74
3132;BME280;62090;52.330;9.104;2024-02-26T12:25:59;100039.16;;;8.76;81.38
3132;BME280;62090;52.330;9.104;2024-02-26T12:28:36;100071.78;;;8.98;81.48
3132;BME280;62090;52.330;9.104;2024-02-26T12:31:06;100072.44;;;8.88;81.49
3132;BME280;62090;52.330;9.104;2024-02-26T12:33:36;100040.72;;;8.69;80.27
3132;BME280;62090;52.330;9.104;2024-02-26T12:36:07;100071.66;;;8.92;81.81
3132;BME280;62090;52.330;9.104;2024-02-26T12:38:37;100079.63;;;9.09;80.99
3132;BME280;62090;52.330;9.104;2024-02-26T12:41:08;99992.25;;;8.59;81.50
3132;BME280;62090;52.330;9.104;2024-02-26T12:43:41;100087.56;;;9.25;81.34
3132;BME280;62090;52.330;9.104;2024-02-26T12:46:15;100064.38;;;9.10;80.90
3132;BME280;62090;52.330;9.104;2024-02-26T12:48:46;100039.63;;;8.99;81.04
3132;BME280;62090;52.330;9.104;2024-02-26T12:51:17;99998.47;;;8.74;81.34
3132;BME280;62090;52.330;9.104;2024-02-26T12:53:49;100070.47;;;9.17;82.32
3132;BME280;62090;52.330;9.104;2024-02-26T12:56:20;100055.09;;;9.11;82.00
3132;BME280;62090;52.330;9.104;2024-02-26T12:58:54;100078.28;;;9.27;81.97
3132;BME280;62090;52.330;9.104;2024-02-26T13:01:25;100018.06;;;8.80;82.20
3132;BME280;62090;52.330;9.104;2024-02-26T13:03:56;100066.09;;;9.11;82.98
3132;BME280;62090;52.330;9.104;2024-02-26T13:06:28;100101.28;;;9.33;82.79
3132;BME280;62090;52.330;9.104;2024-02-26T13:08:58;100070.41;;;9.14;81.68
3132;BME280;62090;52.330;9.104;2024-02-26T13:11:29;100079.06;;;9.23;81.84
3132;BME280;62090;52.330;9.104;2024-02-26T13:14:02;100063.53;;;9.10;82.19
3132;BME280;62090;52.330;9.104;2024-02-26T13:16:35;100111.63;;;9.43;82.37
3132;BME280;62090;52.330;9.104;2024-02-26T13:19:08;100097.09;;;9.36;81.71
3132;BME280;62090;52.330;9.104;2024-02-26T13:21:39;100087.53;;;9.24;82.96
3132;BME280;62090;52.330;9.104;2024-02-26T13:24:12;100089.50;;;9.39;80.98
3132;BME280;62090;52.330;9.104;2024-02-26T13:26:43;100083.97;;;9.16;80.73
3132;BME280;62090;52.330;9.104;2024-02-26T13:29:19;100118.31;;;9.38;81.74
3132;BME280;62090;52.330;9.104;2024-02-26T13:31:53;100086.69;;;9.23;80.46
3132;BME280;62090;52.330;9.104;2024-02-26T13:34:24;100010.97;;;8.64;80.56